Time;durP1;ratioP1;P1;durP2;ratioP2;P2;SDS_P1;SDS_P2;PMS_P1;PMS_P2;Temp;Humidity;BMP_temperature;BMP_pressure;BME280_temperature;BME280_humidity;BME280_pressure;Samples;Min_cycle;Max_cycle;Signal;HPM_P1;HPM_P2
2022/07/06 00:02:15;;;;;;;4.20;2.40;;;;;;;10.99;100.00;101511.72;5028463;28;20032;-66
2022/07/06 00:04:41;;;;;;;5.55;2.85;;;;;;;10.91;100.00;101502.38;5025778;28;20496;-66
2022/07/06 00:07:06;;;;;;;3.95;2.58;;;;;;;10.87;100.00;101501.63;5038613;28;20017;-66
2022/07/06 00:09:32;;;;;;;7.93;2.33;;;;;;;10.94;100.00;101518.91;5043080;28;20487;-65
2022/07/06 00:11:58;;;;;;;6.90;2.97;;;;;;;10.88;100.00;101528.78;5036821;28;20115;-65
2022/07/06 00:14:23;;;;;;;6.53;2.55;;;;;;;10.77;100.00;101521.25;5044609;28;20108;-66
2022/07/06 00:16:48;;;;;;;5.93;2.92;;;;;;;10.63;100.00;101499.81;5048294;28;20052;-66
2022/07/06 00:19:14;;;;;;;4.50;2.72;;;;;;;10.58;100.00;101506.97;5028179;28;20091;-66
2022/07/06 00:21:39;;;;;;;6.03;3.25;;;;;;;10.70;100.00;101528.47;5043833;28;20045;-66
2022/07/06 00:24:05;;;;;;;5.95;3.40;;;;;;;10.65;100.00;101526.88;5032781;28;20063;-66
2022/07/06 00:26:30;;;;;;;9.52;3.65;;;;;;;10.56;100.00;101516.69;5029419;28;20034;-66
2022/07/06 00:28:55;;;;;;;8.85;3.47;;;;;;;10.55;100.00;101525.47;5054304;28;20025;-66
2022/07/06 00:31:21;;;;;;;5.35;3.47;;;;;;;10.67;100.00;101535.59;5051843;28;20052;-66
2022/07/06 00:33:46;;;;;;;6.80;2.80;;;;;;;10.65;100.00;101526.88;5033366;28;20033;-66
2022/07/06 00:36:12;;;;;;;6.25;3.30;;;;;;;10.68;100.00;101534.66;5042936;28;20029;-65
2022/07/06 00:38:37;;;;;;;6.82;3.20;;;;;;;10.66;100.00;101533.88;5025851;28;20041;-66
2022/07/06 00:41:02;;;;;;;4.82;2.97;;;;;;;10.67;100.00;101530.34;5024642;28;20025;-66
2022/07/06 00:43:28;;;;;;;6.57;3.17;;;;;;;10.59;100.00;101517.44;5036245;28;20032;-66
2022/07/06 00:45:54;;;;;;;6.05;2.70;;;;;;;10.59;100.00;101521.84;5053431;28;20037;-66
2022/07/06 00:48:19;;;;;;;5.22;2.70;;;;;;;10.58;100.00;101528.84;5053943;28;20049;-66
2022/07/06 00:50:44;;;;;;;5.60;3.08;;;;;;;10.61;100.00;101535.81;5053606;28;20037;-66
2022/07/06 00:53:10;;;;;;;6.22;3.20;;;;;;;10.60;100.00;101528.81;5041539;28;20842;-66
2022/07/06 00:55:39;;;;;;;7.90;4.10;;;;;;;10.59;100.00;101532.34;5025431;28;20552;-66
2022/07/06 00:58:06;;;;;;;6.82;3.90;;;;;;;10.58;100.00;101526.22;5033567;28;20034;-66
2022/07/06 01:00:31;;;;;;;6.57;4.07;;;;;;;10.29;100.00;101486.03;5025625;28;20037;-67
2022/07/06 01:02:57;;;;;;;6.47;3.30;;;;;;;10.54;100.00;101529.03;5039630;28;20035;-66
2022/07/06 01:05:23;;;;;;;12.00;3.95;;;;;;;10.57;100.00;101535.03;5039952;28;20025;-66
2022/07/06 01:07:49;;;;;;;8.05;4.57;;;;;;;10.60;100.00;101534.94;5038445;28;20032;-66
2022/07/06 01:10:17;;;;;;;6.43;3.80;;;;;;;10.59;100.00;101533.22;5036501;28;20058;-67
2022/07/06 01:12:44;;;;;;;8.30;4.25;;;;;;;10.61;100.00;101536.63;5033572;28;20037;-66
2022/07/06 01:15:14;;;;;;;5.50;3.40;;;;;;;10.55;100.00;101539.47;5024062;28;20021;-67
2022/07/06 01:17:40;;;;;;;6.40;4.13;;;;;;;10.43;100.00;101520.63;5038864;28;20098;-66
2022/07/06 01:20:13;;;;;;;6.00;3.55;;;;;;;10.29;100.00;101507.91;5036905;28;20379;-66
2022/07/06 01:22:38;;;;;;;7.30;3.47;;;;;;;10.38;100.00;101522.50;5027571;28;20021;-66
2022/07/06 01:25:05;;;;;;;8.02;4.60;;;;;;;10.30;100.00;101514.03;5037705;28;20037;-66
2022/07/06 01:27:32;;;;;;;7.55;3.58;;;;;;;10.27;100.00;101510.56;5022565;28;20071;-66
2022/07/06 01:29:57;;;;;;;10.82;4.65;;;;;;;10.22;100.00;101506.38;5027873;28;20543;-67
2022/07/06 01:32:22;;;;;;;5.43;3.35;;;;;;;10.20;100.00;101516.09;5023409;28;20111;-66
2022/07/06 01:34:48;;;;;;;8.68;4.50;;;;;;;10.08;100.00;101517.25;5029640;28;20508;-66
2022/07/06 01:37:13;;;;;;;8.10;4.25;;;;;;;10.11;100.00;101530.31;5041222;28;20026;-66
2022/07/06 01:39:38;;;;;;;7.75;3.90;;;;;;;9.94;100.00;101501.06;5032759;28;20030;-67
2022/07/06 01:42:05;;;;;;;6.00;3.78;;;;;;;10.00;100.00;101514.03;5033109;28;20021;-66
2022/07/06 01:44:30;;;;;;;10.80;5.05;;;;;;;9.92;100.00;101502.88;5020049;28;20120;-66
2022/07/06 01:46:55;;;;;;;8.88;4.50;;;;;;;9.92;100.00;101508.13;5022312;28;20046;-66
2022/07/06 01:49:21;;;;;;;9.68;5.10;;;;;;;9.88;100.00;101511.75;5028158;28;20041;-66
2022/07/06 01:51:46;;;;;;;7.88;4.95;;;;;;;9.84;100.00;101525.00;5039360;28;20034;-66
2022/07/06 01:54:13;;;;;;;7.00;4.65;;;;;;;9.77;100.00;101519.94;5024563;28;20049;-66
2022/07/06 01:56:39;;;;;;;6.22;3.72;;;;;;;9.73;100.00;101527.97;5032755;28;20071;-66
2022/07/06 01:59:04;;;;;;;7.95;5.10;;;;;;;9.52;100.00;101504.94;5032270;28;20123;-66
2022/07/06 02:01:29;;;;;;;8.57;5.13;;;;;;;9.61;100.00;101515.16;5045952;28;20126;-66
2022/07/06 02:03:55;;;;;;;8.82;4.93;;;;;;;9.64;100.00;101520.31;5045015;28;20040;-66
2022/07/06 02:06:20;;;;;;;8.48;4.32;;;;;;;9.57;100.00;101514.38;5033529;28;20037;-66
2022/07/06 02:08:45;;;;;;;7.38;5.00;;;;;;;9.54;100.00;101508.38;5031912;28;20029;-66
2022/07/06 02:11:11;;;;;;;10.65;5.00;;;;;;;9.62;100.00;101515.13;5032876;28;20470;-66
2022/07/06 02:13:37;;;;;;;6.43;4.53;;;;;;;9.54;100.00;101501.34;5043731;28;20040;-66
2022/07/06 02:16:03;;;;;;;6.90;4.88;;;;;;;9.57;100.00;101495.16;5035696;28;20029;-66
2022/07/06 02:18:28;;;;;;;10.82;5.65;;;;;;;9.57;100.00;101488.16;5048397;28;20044;-66
2022/07/06 02:20:53;;;;;;;9.20;4.82;;;;;;;9.58;100.00;101497.75;5048276;28;20103;-66
2022/07/06 02:23:19;;;;;;;8.10;5.32;;;;;;;9.51;100.00;101490.09;5047436;28;20021;-66
2022/07/06 02:25:44;;;;;;;8.32;4.65;;;;;;;9.49;100.00;101491.91;5038630;28;20104;-66
2022/07/06 02:28:10;;;;;;;8.32;5.22;;;;;;;9.48;100.00;101484.94;5043891;28;20018;-65
2022/07/06 02:30:35;;;;;;;9.07;4.95;;;;;;;9.55;100.00;101508.34;5033055;28;20067;-65
2022/07/06 02:33:00;;;;;;;10.52;5.07;;;;;;;9.43;100.00;101489.47;5031190;28;20427;-66
2022/07/06 02:35:26;;;;;;;7.00;5.07;;;;;;;9.43;100.00;101494.72;5023083;28;20034;-66
2022/07/06 02:37:51;;;;;;;6.30;4.53;;;;;;;9.38;100.00;101480.84;5032796;28;20070;-66
2022/07/06 02:40:17;;;;;;;11.55;6.00;;;;;;;9.41;100.00;101497.38;5035215;28;20499;-67
2022/07/06 02:42:42;;;;;;;9.98;6.70;;;;;;;9.41;100.00;101496.50;5040493;28;20048;-66
2022/07/06 02:45:08;;;;;;;12.40;6.60;;;;;;;9.46;100.00;101513.00;5034828;28;20388;-66
2022/07/06 02:47:34;;;;;;;12.68;6.60;;;;;;;9.30;100.00;101475.81;5020805;28;20065;-66
2022/07/06 02:49:59;;;;;;;9.07;6.30;;;;;;;9.45;100.00;101495.50;5028054;28;20067;-67
2022/07/06 02:52:24;;;;;;;14.50;6.32;;;;;;;9.44;100.00;101494.66;5031452;28;20040;-67
2022/07/06 02:54:50;;;;;;;9.25;5.75;;;;;;;9.44;100.00;101509.53;5036701;28;20367;-67
2022/07/06 02:57:16;;;;;;;11.07;5.88;;;;;;;9.35;100.00;101502.78;5044690;28;20033;-67
2022/07/06 02:59:42;;;;;;;20.20;6.82;;;;;;;9.38;100.00;101509.69;5046049;28;20041;-67
2022/07/06 03:02:07;;;;;;;8.85;5.82;;;;;;;9.33;100.00;101495.88;5039483;28;20077;-67
2022/07/06 03:04:33;;;;;;;13.13;7.20;;;;;;;9.30;100.00;101506.41;5025031;28;20064;-67
2022/07/06 03:06:58;;;;;;;11.35;7.07;;;;;;;9.33;100.00;101512.44;5030625;28;20044;-67
2022/07/06 03:09:24;;;;;;;9.57;5.97;;;;;;;9.34;100.00;101508.91;5030644;28;20564;-67
2022/07/06 03:11:49;;;;;;;9.40;7.03;;;;;;;9.27;100.00;101517.84;5030089;28;20017;-67
2022/07/06 03:14:15;;;;;;;12.98;7.78;;;;;;;9.27;100.00;101506.50;5031545;28;20610;-67
2022/07/06 03:16:40;;;;;;;9.70;6.90;;;;;;;9.28;100.00;101502.97;5029176;28;20026;-67
2022/07/06 03:19:05;;;;;;;17.73;9.43;;;;;;;9.33;100.00;101516.84;5031841;28;20453;-67
2022/07/06 03:21:31;;;;;;;14.68;8.57;;;;;;;9.36;100.00;101516.75;5044459;28;20032;-67
2022/07/06 03:23:56;;;;;;;23.33;10.40;;;;;;;9.31;100.00;101506.38;5031709;28;20032;-66
2022/07/06 03:26:22;;;;;;;19.27;8.25;;;;;;;9.37;100.00;101518.47;5042094;28;20143;-66
2022/07/06 03:28:47;;;;;;;14.30;9.35;;;;;;;9.28;100.00;101508.22;5047859;28;20025;-66
2022/07/06 03:31:12;;;;;;;21.95;8.98;;;;;;;9.36;100.00;101519.38;5031559;28;20028;-66
2022/07/06 03:33:38;;;;;;;16.08;7.85;;;;;;;9.26;100.00;101504.81;5041116;28;20040;-66
2022/07/06 03:36:04;;;;;;;11.70;6.97;;;;;;;9.15;100.00;101508.56;5045163;28;20029;-66
2022/07/06 03:38:30;;;;;;;13.18;8.88;;;;;;;9.17;100.00;101522.50;5020938;28;20044;-66
2022/07/06 03:40:55;;;;;;;12.48;7.65;;;;;;;9.17;100.00;101521.63;5030872;28;20033;-66
2022/07/06 03:43:21;;;;;;;20.55;10.10;;;;;;;9.12;100.00;101519.16;5034190;28;20111;-66
2022/07/06 03:45:46;;;;;;;11.98;8.30;;;;;;;9.15;100.00;101515.56;5040984;28;20040;-66
2022/07/06 03:48:11;;;;;;;14.95;7.65;;;;;;;9.09;100.00;101519.19;5044061;28;20398;-66
2022/07/06 03:50:37;;;;;;;17.10;9.70;;;;;;;9.14;100.00;101533.06;5029799;28;20030;-66
2022/07/06 03:53:02;;;;;;;13.65;8.48;;;;;;;9.12;100.00;101532.25;5041914;28;20021;-66
2022/07/06 03:55:27;;;;;;;16.13;8.68;;;;;;;9.08;100.00;101530.59;5043741;28;20068;-67
2022/07/06 03:57:53;;;;;;;21.38;8.30;;;;;;;9.05;100.00;101529.81;5038959;28;20112;-67
2022/07/06 04:00:18;;;;;;;28.58;11.43;;;;;;;8.98;100.00;101536.97;5034135;28;20050;-67
2022/07/06 04:02:43;;;;;;;27.05;12.13;;;;;;;8.93;100.00;101523.13;5046168;28;20079;-66
2022/07/06 04:05:09;;;;;;;17.77;9.30;;;;;;;8.87;100.00;101522.41;5043411;28;20079;-66
2022/07/06 04:07:34;;;;;;;16.58;9.93;;;;;;;8.94;100.00;101532.72;5017830;28;20364;-66
2022/07/06 04:10:00;;;;;;;20.38;9.40;;;;;;;8.86;100.00;101513.69;5031825;28;20033;-67
2022/07/06 04:12:25;;;;;;;20.65;10.50;;;;;;;8.93;100.00;101517.00;5048733;28;20082;-67
2022/07/06 04:14:51;;;;;;;15.02;9.48;;;;;;;8.91;100.00;101508.34;5046400;28;20475;-66
2022/07/06 04:20:00;;;;;;;23.50;11.17;;;;;;;9.18;100.00;101537.34;5028576;28;20044;-65
2022/07/06 04:22:25;;;;;;;22.00;10.00;;;;;;;9.28;100.00;101539.69;5045589;28;20685;-67
2022/07/06 04:24:51;;;;;;;16.00;9.43;;;;;;;9.33;100.00;101532.59;5036236;28;20369;-66
2022/07/06 04:27:16;;;;;;;15.82;9.13;;;;;;;9.48;100.00;101542.66;5039604;28;20464;-67
2022/07/06 04:29:41;;;;;;;16.10;9.30;;;;;;;9.28;100.00;101497.75;5024277;28;20029;-67
2022/07/06 04:32:07;;;;;;;16.83;9.38;;;;;;;9.59;100.00;101540.59;5012750;28;20030;-67
2022/07/06 04:34:32;;;;;;;19.50;8.70;;;;;;;9.61;100.00;101529.16;5035811;28;20029;-67
2022/07/06 04:36:58;;;;;;;25.17;8.40;;;;;;;9.77;100.00;101545.31;5045438;28;20075;-66
2022/07/06 04:39:23;;;;;;;19.40;9.60;;;;;;;9.78;100.00;101528.66;5048600;28;20075;-66
2022/07/06 04:41:48;;;;;;;13.07;8.18;;;;;;;9.74;100.00;101513.91;5047831;28;20029;-67
2022/07/06 04:44:14;;;;;;;14.63;8.55;;;;;;;9.99;100.00;101546.44;5044657;28;20426;-67
2022/07/06 04:46:39;;;;;;;19.40;8.35;;;;;;;9.99;100.00;101540.31;5028209;28;21219;-67
2022/07/06 04:49:04;;;;;;;18.23;8.25;;;;;;;10.06;100.00;101540.09;5023539;28;20039;-66
2022/07/06 04:51:30;;;;;;;15.00;8.63;;;;;;;10.11;100.00;101542.56;5042969;28;20036;-67
2022/07/06 04:53:55;;;;;;;15.43;7.45;;;;;;;9.93;100.00;101509.88;5031376;28;20499;-66
2022/07/06 04:56:20;;;;;;;17.33;7.82;;;;;;;10.23;100.00;101535.22;5034121;28;20100;-66
2022/07/06 04:58:46;;;;;;;12.15;6.80;;;;;;;10.38;100.00;101540.91;5031454;28;20042;-66
2022/07/06 05:01:11;;;;;;;18.13;8.00;;;;;;;10.42;100.00;101530.25;5044117;28;20078;-67
2022/07/06 05:03:40;;;;;;;10.27;6.45;;;;;;;10.50;100.00;101530.88;5032487;28;20031;-67
2022/07/06 05:06:06;;;;;;;10.25;6.60;;;;;;;10.61;100.00;101528.75;5036250;28;20024;-67
2022/07/06 05:08:31;;;;;;;12.48;6.60;;;;;;;10.62;100.00;101530.47;5039049;28;20048;-67
2022/07/06 05:10:57;;;;;;;24.70;6.20;;;;;;;10.77;100.00;101539.66;5048377;28;20460;-67
2022/07/06 05:13:22;;;;;;;11.63;5.57;;;;;;;10.83;100.00;101533.31;5037106;28;20186;-66
2022/07/06 05:15:48;;;;;;;9.90;6.07;;;;;;;10.78;100.00;101509.84;5038731;28;20037;-66
2022/07/06 05:18:13;;;;;;;14.30;5.03;;;;;;;11.11;100.00;101542.88;5047821;28;20020;-66
2022/07/06 05:20:38;;;;;;;7.63;4.78;;;;;;;11.20;100.00;101537.28;5028349;28;20029;-66
2022/07/06 05:23:04;;;;;;;8.15;4.38;;;;;;;11.39;100.00;101541.94;5048242;28;20593;-66
2022/07/06 05:25:30;;;;;;;8.32;4.22;;;;;;;11.55;100.00;101537.84;5019447;28;20480;-66
2022/07/06 05:27:55;;;;;;;7.38;3.67;;;;;;;11.67;100.00;101545.28;5040388;28;20142;-66
2022/07/06 05:30:21;;;;;;;5.95;3.20;;;;;;;11.70;100.00;101526.72;5037081;28;20114;-66
2022/07/06 05:32:46;;;;;;;6.82;3.65;;;;;;;11.93;100.00;101547.84;5042441;28;20034;-66
2022/07/06 05:35:11;;;;;;;6.93;3.35;;;;;;;12.03;100.00;101543.13;5031714;28;20032;-66
2022/07/06 05:37:37;;;;;;;7.13;2.95;;;;;;;12.08;100.00;101528.84;5032900;28;20596;-67
2022/07/06 05:40:03;;;;;;;5.97;3.53;;;;;;;12.18;100.00;101527.56;5045178;28;20464;-66
2022/07/06 05:42:28;;;;;;;6.80;3.72;;;;;;;12.46;100.00;101550.22;5031986;28;20040;-66
2022/07/06 05:44:56;;;;;;;5.82;3.13;;;;;;;12.51;100.00;101548.22;5030521;28;20026;-67
2022/07/06 05:50:12;;;;;;;6.22;3.03;;;;;;;12.81;100.00;101562.81;5012139;28;20084;-67
2022/07/06 05:52:42;;;;;;;9.55;3.25;;;;;;;12.77;100.00;101534.88;5033255;28;20033;-67
2022/07/06 05:55:09;;;;;;;4.75;2.90;;;;;;;13.06;100.00;101557.41;5023665;28;20025;-67
2022/07/06 05:57:35;;;;;;;4.88;2.35;;;;;;;13.20;100.00;101561.22;5017719;28;20120;-67
2022/07/06 06:00:01;;;;;;;8.07;2.75;;;;;;;13.34;100.00;101567.69;5027064;28;20036;-67
2022/07/06 06:02:26;;;;;;;9.43;2.92;;;;;;;13.43;100.00;101562.00;5037379;28;20040;-67
2022/07/06 06:04:53;;;;;;;6.18;2.47;;;;;;;13.49;100.00;101562.59;5031825;28;20036;-66
2022/07/06 06:07:18;;;;;;;8.25;2.38;;;;;;;13.63;100.00;101567.28;5032125;28;20021;-66
2022/07/06 06:09:44;;;;;;;9.27;2.65;;;;;;;13.81;100.00;101569.13;5045417;28;20090;-67
2022/07/06 06:12:09;;;;;;;6.35;2.45;;;;;;;13.91;100.00;101565.13;5033704;28;20429;-67
2022/07/06 06:14:34;;;;;;;6.95;2.22;;;;;;;13.99;100.00;101556.88;5034266;28;20096;-66
2022/07/06 06:17:00;;;;;;;5.95;2.05;;;;;;;14.09;100.00;101572.22;5026740;28;20124;-66
2022/07/06 06:19:25;;;;;;;4.35;1.30;;;;;;;14.21;100.00;101568.16;5025576;28;20496;-67
2022/07/06 06:21:51;;;;;;;10.45;1.73;;;;;;;14.40;100.00;101578.78;5025558;28;20014;-67
2022/07/06 06:24:17;;;;;;;4.47;1.88;;;;;;;14.55;100.00;101567.47;5015666;28;20041;-67
2022/07/06 06:26:42;;;;;;;4.28;1.60;;;;;;;14.78;100.00;101572.50;5022699;28;20535;-67
2022/07/06 06:29:08;;;;;;;3.65;1.40;;;;;;;14.90;100.00;101569.25;5016798;28;20072;-66
2022/07/06 06:31:33;;;;;;;3.58;1.30;;;;;;;15.08;100.00;101556.88;5000618;28;20055;-67
2022/07/06 06:33:59;;;;;;;3.63;1.38;;;;;;;15.29;100.00;101572.56;4994680;28;20041;-67
2022/07/06 06:36:24;;;;;;;4.25;1.33;;;;;;;15.21;100.00;101564.13;5015723;28;20376;-67
2022/07/06 06:38:49;;;;;;;2.22;0.93;;;;;;;15.18;100.00;101580.16;5013358;28;20118;-67
2022/07/06 06:41:15;;;;;;;2.40;0.98;;;;;;;15.10;100.00;101568.28;5013168;28;20028;-67
2022/07/06 06:43:40;;;;;;;3.08;1.45;;;;;;;15.10;100.00;101577.06;5025101;28;20120;-63
2022/07/06 06:46:05;;;;;;;10.48;1.45;;;;;;;15.10;100.00;101561.19;5017298;28;20034;-66
2022/07/06 06:48:31;;;;;;;4.13;1.02;;;;;;;15.09;100.00;101558.59;5019371;28;20073;-67
2022/07/06 06:50:57;;;;;;;3.67;1.33;;;;;;;15.16;100.00;101570.59;5010465;28;20087;-66
2022/07/06 06:53:22;;;;;;;4.35;1.58;;;;;;;15.21;100.00;101581.81;5003141;28;20037;-68
2022/07/06 06:55:47;;;;;;;2.55;1.10;;;;;;;15.20;100.00;101583.63;5001159;28;20048;-68
2022/07/06 06:58:13;;;;;;;2.42;1.02;;;;;;;15.17;100.00;101575.84;5014343;28;20071;-67
2022/07/06 07:00:38;;;;;;;3.65;1.10;;;;;;;15.16;100.00;101574.09;5006435;28;20029;-67
2022/07/06 07:03:03;;;;;;;3.42;1.00;;;;;;;14.96;100.00;101531.03;4986447;28;20041;-67
2022/07/06 07:05:29;;;;;;;3.53;0.80;;;;;;;15.35;100.00;101579.31;4989961;28;20025;-66
2022/07/06 07:07:57;;;;;;;4.47;0.93;;;;;;;15.49;100.00;101578.66;5010432;28;20053;-66
2022/07/06 07:10:22;;;;;;;4.30;0.82;;;;;;;15.48;100.00;101561.03;5033039;28;20029;-66
2022/07/06 07:12:48;;;;;;;3.22;0.90;;;;;;;15.63;100.00;101566.41;5030688;28;20486;-66
2022/07/06 07:15:14;;;;;;;2.45;0.90;;;;;;;15.75;100.00;101589.59;5023697;28;20120;-67
2022/07/06 07:17:39;;;;;;;1.90;0.57;;;;;;;15.79;100.00;101587.66;5036933;28;20018;-66
2022/07/06 07:20:06;;;;;;;3.60;0.73;;;;;;;15.70;100.00;101583.69;5038379;28;20018;-66
2022/07/06 07:22:31;;;;;;;3.47;0.82;;;;;;;15.62;100.00;101590.31;5031386;28;20479;-67
2022/07/06 07:24:58;;;;;;;2.65;0.80;;;;;;;15.57;100.00;101587.06;5032107;28;20079;-66
2022/07/06 07:27:24;;;;;;;2.00;0.65;;;;;;;15.63;100.00;101589.41;5050716;28;20479;-66
2022/07/06 07:29:50;;;;;;;3.00;1.20;;;;;;;15.65;100.00;101595.47;5027429;28;20033;-67
2022/07/06 07:32:15;;;;;;;2.15;1.02;;;;;;;15.54;100.00;101587.22;5031248;28;20036;-66
2022/07/06 07:34:40;;;;;;;2.25;0.43;;;;;;;15.52;100.00;101589.06;5044875;28;20025;-67
2022/07/06 07:37:06;;;;;;;2.85;0.80;;;;;;;15.49;100.00;101583.94;5042357;28;20120;-66
2022/07/06 07:39:31;;;;;;;1.60;0.70;;;;;;;15.61;100.00;101588.63;5033192;28;20034;-66
2022/07/06 07:41:57;;;;;;;1.58;0.57;;;;;;;15.73;100.00;101587.97;5031174;28;20447;-66
2022/07/06 07:44:22;;;;;;;2.75;0.70;;;;;;;15.72;100.00;101586.25;5036778;28;20099;-66
2022/07/06 07:46:48;;;;;;;2.55;0.70;;;;;;;15.78;100.00;101583.31;5026472;28;20111;-66
2022/07/06 07:49:13;;;;;;;2.13;0.90;;;;;;;15.91;100.00;101576.41;5039714;28;20024;-66
2022/07/06 07:51:39;;;;;;;2.92;0.93;;;;;;;15.92;100.00;101575.44;5032847;28;20029;-67
2022/07/06 07:54:05;;;;;;;2.75;0.98;;;;;;;15.93;100.00;101584.25;5027410;28;20022;-66
2022/07/06 07:56:31;;;;;;;2.38;0.93;;;;;;;15.71;100.00;101558.06;5027962;28;20025;-66
2022/07/06 07:58:56;;;;;;;3.90;0.90;;;;;;;15.60;100.00;101571.88;5024099;28;20105;-67
2022/07/06 08:01:21;;;;;;;3.35;1.05;;;;;;;15.68;100.00;101579.44;5036052;28;20400;-66
2022/07/06 08:03:47;;;;;;;2.42;0.90;;;;;;;15.81;100.00;101583.13;5029494;28;20108;-67
2022/07/06 08:06:13;;;;;;;3.78;0.90;;;;;;;15.84;100.00;101564.41;5035520;28;20477;-67
2022/07/06 08:08:38;;;;;;;1.35;0.60;;;;;;;15.99;100.00;101560.94;5053138;28;20032;-67
2022/07/06 08:11:03;;;;;;;3.70;1.00;;;;;;;16.31;100.00;101575.97;5044632;28;20029;-66
2022/07/06 08:13:29;;;;;;;2.58;1.02;;;;;;;16.31;100.00;101564.50;5031580;28;20028;-67
2022/07/06 08:15:54;;;;;;;2.08;0.93;;;;;;;16.34;100.00;101559.88;5051822;28;20387;-67
2022/07/06 08:18:19;;;;;;;3.95;0.82;;;;;;;16.15;100.00;101563.63;5051134;28;20032;-66
2022/07/06 08:20:45;;;;;;;3.28;0.93;;;;;;;16.06;100.00;101569.41;5025404;28;20031;-66
2022/07/06 08:23:10;;;;;;;2.97;0.80;;;;;;;15.96;100.00;101566.41;5023335;28;20543;-67
2022/07/06 08:25:36;;;;;;;1.63;0.60;;;;;;;16.10;100.00;101573.59;5025569;28;20025;-67
2022/07/06 08:28:01;;;;;;;2.78;0.82;;;;;;;16.12;100.00;101563.78;5043311;28;20032;-66
2022/07/06 08:30:26;;;;;;;3.17;0.98;;;;;;;16.17;100.00;101567.03;5039399;28;20108;-67
2022/07/06 08:32:52;;;;;;;2.53;1.05;;;;;;;15.99;100.00;101526.47;5028829;28;20378;-66
2022/07/06 08:35:17;;;;;;;2.03;0.73;;;;;;;16.20;100.00;101570.38;5036849;28;20089;-67
2022/07/06 08:37:43;;;;;;;3.47;1.20;;;;;;;16.19;100.00;101576.63;5039733;28;20039;-66
2022/07/06 08:40:09;;;;;;;2.03;0.82;;;;;;;16.00;100.00;101567.94;5039674;28;20021;-66
2022/07/06 08:42:35;;;;;;;2.97;0.75;;;;;;;16.09;100.00;101575.41;5029733;28;20030;-67
2022/07/06 08:45:02;;;;;;;2.88;0.88;;;;;;;16.19;100.00;101573.97;5042587;28;20025;-66
2022/07/06 08:47:28;;;;;;;3.35;0.80;;;;;;;16.19;100.00;101568.66;5036821;28;20048;-67
2022/07/06 08:49:54;;;;;;;2.72;0.80;;;;;;;16.45;100.00;101561.06;5004880;28;20042;-67
2022/07/06 08:52:21;;;;;;;1.35;0.60;;;;;;;16.76;100.00;101561.09;5007630;28;20125;-67
2022/07/06 08:54:46;;;;;;;2.83;0.98;;;;;;;17.00;100.00;101572.94;5029737;28;20033;-67
2022/07/06 08:57:12;;;;;;;3.55;0.95;;;;;;;17.11;97.00;101561.69;5036015;28;20028;-66
2022/07/06 08:59:39;;;;;;;3.05;1.20;;;;;;;17.16;100.00;101544.56;5022276;28;20105;-67
2022/07/06 09:02:05;;;;;;;2.63;0.60;;;;;;;17.48;98.04;101569.19;5013252;28;20033;-68
2022/07/06 09:04:32;;;;;;;3.05;0.90;;;;;;;17.46;92.13;101556.94;4996532;28;20034;-67
2022/07/06 09:06:58;;;;;;;2.58;0.85;;;;;;;17.59;95.19;101557.94;5007490;28;20026;-67
2022/07/06 09:09:24;;;;;;;2.22;0.63;;;;;;;17.77;94.39;101562.16;5008217;28;20028;-67
2022/07/06 09:11:50;;;;;;;1.70;0.68;;;;;;;17.90;92.66;101557.78;4986824;28;20393;-67
2022/07/06 09:14:16;;;;;;;2.75;1.00;;;;;;;17.86;94.63;101527.00;4986104;28;20026;-67
2022/07/06 09:16:41;;;;;;;3.03;0.65;;;;;;;18.10;93.28;101549.41;4989621;28;20026;-67
2022/07/06 09:19:13;;;;;;;1.30;0.60;;;;;;;18.07;91.91;101528.31;4983300;28;20144;-67
2022/07/06 09:21:39;;;;;;;2.20;0.70;;;;;;;17.92;89.10;101545.22;4988591;28;20033;-67
2022/07/06 09:24:07;;;;;;;1.83;0.80;;;;;;;17.63;89.21;101559.47;4996536;28;20033;-67
2022/07/06 09:26:33;;;;;;;2.47;0.80;;;;;;;17.48;89.58;101565.66;4988824;28;20034;-67
2022/07/06 09:28:59;;;;;;;1.85;0.80;;;;;;;17.29;89.50;101548.19;5004688;28;20029;-67
2022/07/06 09:31:25;;;;;;;2.72;0.82;;;;;;;17.35;95.39;101550.47;4990525;28;20888;-67
2022/07/06 09:33:55;;;;;;;2.17;0.75;;;;;;;17.64;95.14;101570.00;4986227;28;20034;-67
2022/07/06 09:36:40;;;;;;;3.70;1.02;;;;;;;17.89;90.80;101566.69;4989088;28;20175;-66
2022/07/06 09:39:15;;;;;;;2.35;0.85;;;;;;;17.95;90.75;101563.66;4997237;28;20386;-68
2022/07/06 09:41:41;;;;;;;1.65;0.70;;;;;;;17.75;86.19;101556.06;4982560;28;20185;-67
2022/07/06 09:44:06;;;;;;;3.08;0.68;;;;;;;17.61;87.55;101510.84;4985721;28;20024;-67
2022/07/06 09:46:42;;;;;;;1.58;0.52;;;;;;;18.16;90.28;101559.66;4985499;28;20776;-67
2022/07/06 09:49:08;;;;;;;3.53;0.90;;;;;;;18.44;90.58;101573.88;4976315;28;20032;-67
2022/07/06 09:51:38;;;;;;;4.95;0.70;;;;;;;18.63;87.43;101569.09;4985481;28;20025;-67
2022/07/06 09:54:08;;;;;;;3.38;0.80;;;;;;;18.62;82.54;101570.06;4986204;28;20091;-66
2022/07/06 09:56:41;;;;;;;1.20;0.60;;;;;;;18.53;84.75;101555.53;5010544;28;20025;-67
2022/07/06 09:59:10;;;;;;;2.65;0.98;;;;;;;18.38;84.70;101528.06;5002134;28;20422;-67
2022/07/06 10:01:37;;;;;;;2.35;0.90;;;;;;;18.47;83.47;101573.66;5005307;28;20606;-66
2022/07/06 10:04:03;;;;;;;3.13;0.82;;;;;;;18.21;82.66;101556.72;4985652;28;20039;-66
2022/07/06 10:06:29;;;;;;;3.97;1.00;;;;;;;17.91;81.43;101543.53;4984442;28;20872;-67
2022/07/06 10:08:55;;;;;;;3.03;0.82;;;;;;;18.09;85.35;101549.50;4992054;28;20077;-67
2022/07/06 10:11:21;;;;;;;1.90;0.70;;;;;;;18.31;84.51;101555.19;4990596;28;20184;-67
2022/07/06 10:13:47;;;;;;;2.63;0.70;;;;;;;18.55;85.34;101561.63;4994814;28;20827;-67
2022/07/06 10:16:14;;;;;;;3.42;1.13;;;;;;;18.38;81.48;101554.66;4991006;28;20036;-67
2022/07/06 10:18:40;;;;;;;2.20;0.90;;;;;;;18.33;83.51;101566.56;4989721;28;20889;-67
2022/07/06 10:21:06;;;;;;;3.40;0.88;;;;;;;18.41;84.74;101566.09;4997152;28;20060;-67
2022/07/06 10:23:31;;;;;;;2.40;0.98;;;;;;;18.53;85.90;101567.97;5011393;28;20029;-67
2022/07/06 10:25:57;;;;;;;2.85;0.90;;;;;;;18.40;84.88;101562.56;4996313;28;20041;-67
2022/07/06 10:28:23;;;;;;;1.98;0.93;;;;;;;18.59;83.10;101559.63;4993710;28;20025;-67
2022/07/06 10:30:49;;;;;;;2.80;0.80;;;;;;;18.58;88.55;101541.94;5000043;28;20093;-67
2022/07/06 10:33:15;;;;;;;3.03;0.98;;;;;;;18.84;84.99;101546.41;4996043;28;20067;-67
2022/07/06 10:35:41;;;;;;;2.80;1.10;;;;;;;18.83;83.23;101563.31;5005843;28;20020;-66
2022/07/06 10:38:08;;;;;;;2.28;1.00;;;;;;;18.76;85.60;101562.88;4991759;28;20075;-67
2022/07/06 10:43:18;;;;;;;9.57;0.98;;;;;;;18.43;84.62;101556.19;5007837;28;20207;-67
2022/07/06 10:45:44;;;;;;;2.67;1.00;;;;;;;18.53;85.84;101566.19;4990351;28;20029;-67
2022/07/06 10:48:12;;;;;;;4.32;1.20;;;;;;;18.67;83.94;101560.81;4984929;28;20040;-67
2022/07/06 10:50:39;;;;;;;4.75;0.90;;;;;;;18.80;85.58;101545.75;4999427;28;20084;-67
2022/07/06 10:53:15;;;;;;;5.65;1.10;;;;;;;19.17;84.28;101567.25;5007535;28;20021;-67
2022/07/06 10:55:46;;;;;;;1.58;0.60;;;;;;;19.13;82.26;101560.44;5047552;28;20029;-67
2022/07/06 10:58:11;;;;;;;2.60;1.00;;;;;;;19.29;83.73;101548.66;5033779;28;20907;-67
2022/07/06 11:00:55;;;;;;;2.97;0.98;;;;;;;19.19;82.20;101502.25;5011311;28;20037;-68
2022/07/06 11:03:38;;;;;;;1.83;0.98;;;;;;;19.51;81.68;101555.19;4999512;28;20037;-67
2022/07/06 11:06:08;;;;;;;2.63;0.90;;;;;;;19.53;82.42;101540.81;5009813;28;20033;-67
2022/07/06 11:08:43;;;;;;;3.92;1.27;;;;;;;19.77;81.51;101562.25;5008017;28;20029;-67
2022/07/06 11:11:31;;;;;;;4.20;1.08;;;;;;;19.92;82.74;101553.16;5018473;28;20029;-67
2022/07/06 11:14:05;;;;;;;2.47;0.90;;;;;;;20.09;78.50;101552.81;5021469;28;20037;-68
2022/07/06 11:16:36;;;;;;;1.77;0.88;;;;;;;19.94;77.94;101550.41;5020197;28;20030;-67
2022/07/06 11:19:06;;;;;;;2.95;1.00;;;;;;;19.94;77.24;101555.75;5014991;28;20057;-67
2022/07/06 11:21:39;;;;;;;2.65;1.10;;;;;;;19.75;77.51;101553.50;5022967;28;20494;-67
2022/07/06 11:24:07;;;;;;;2.38;1.00;;;;;;;19.54;78.06;101536.31;5035314;28;20115;-67